Time;durP1;ratioP1;P1;durP2;ratioP2;P2;SDS_P1;SDS_P2;PMS_P1;PMS_P2;Temp;Humidity;BMP_temperature;BMP_pressure;BME280_temperature;BME280_humidity;BME280_pressure;Samples;Min_cycle;Max_cycle;Signal;HPM_P1;HPM_P2
2023/04/16 00:01:50;;;;;;;7.83;3.33;;;9.00;99.90;;;;;;5076387;28;20212;-59
2023/04/16 00:04:17;;;;;;;7.03;2.80;;;9.10;99.90;;;;;;5056312;28;20235;-59
2023/04/16 00:06:44;;;;;;;6.10;2.97;;;9.20;99.90;;;;;;5058290;28;20195;-59
2023/04/16 00:09:11;;;;;;;5.30;2.50;;;9.30;99.90;;;;;;5076652;28;20280;-59
2023/04/16 00:11:38;;;;;;;6.93;2.80;;;9.10;99.90;;;;;;5075269;28;20766;-59
2023/04/16 00:14:05;;;;;;;7.07;4.00;;;9.10;99.90;;;;;;5075442;28;20281;-59
2023/04/16 00:16:32;;;;;;;9.23;3.57;;;9.20;99.90;;;;;;5076287;28;20199;-59
2023/04/16 00:18:59;;;;;;;8.87;4.40;;;9.30;99.90;;;;;;5077048;28;20301;-59
2023/04/16 00:21:26;;;;;;;5.53;4.50;;;9.20;99.90;;;;;;5056122;28;20423;-59
2023/04/16 00:23:53;;;;;;;9.37;3.77;;;9.20;99.90;;;;;;5069841;28;20206;-59
2023/04/16 00:26:20;;;;;;;6.23;3.60;;;9.00;99.90;;;;;;5073634;28;20245;-59
2023/04/16 00:28:47;;;;;;;9.40;3.80;;;8.90;99.90;;;;;;5072921;28;20204;-59
2023/04/16 00:31:13;;;;;;;14.43;4.77;;;9.10;99.90;;;;;;5072190;28;20398;-59
2023/04/16 00:33:40;;;;;;;9.67;3.73;;;9.10;99.90;;;;;;5048717;28;20650;-59
2023/04/16 00:36:08;;;;;;;8.63;4.23;;;9.10;99.90;;;;;;5059550;28;20209;-59
2023/04/16 00:38:36;;;;;;;7.57;3.20;;;9.20;99.90;;;;;;5074795;28;20204;-59
2023/04/16 00:41:03;;;;;;;8.47;3.73;;;9.10;99.90;;;;;;5077709;28;20370;-59
2023/04/16 00:43:30;;;;;;;11.77;4.23;;;9.00;99.90;;;;;;5071662;28;20288;-61
2023/04/16 00:45:58;;;;;;;8.50;4.00;;;9.10;99.90;;;;;;5075621;28;20239;-63
2023/04/16 00:48:26;;;;;;;7.63;3.80;;;9.20;99.90;;;;;;5073576;28;20206;-59
2023/04/16 00:50:54;;;;;;;8.63;3.83;;;9.00;99.90;;;;;;5076663;28;20195;-60
2023/04/16 00:53:22;;;;;;;6.97;3.80;;;9.10;99.90;;;;;;5074218;28;20203;-59
2023/04/16 00:55:49;;;;;;;12.00;3.90;;;8.90;99.90;;;;;;5074914;28;20203;-59
2023/04/16 00:58:17;;;;;;;9.63;3.50;;;9.00;99.90;;;;;;5076070;28;20214;-59
2023/04/16 01:00:44;;;;;;;7.17;3.67;;;9.00;99.90;;;;;;5063371;28;20305;-60
2023/04/16 01:03:11;;;;;;;8.87;3.67;;;9.00;99.90;;;;;;5075504;28;20593;-59
2023/04/16 01:05:38;;;;;;;3.57;3.07;;;9.00;99.90;;;;;;5075008;28;20201;-59
2023/04/16 01:08:05;;;;;;;8.83;4.33;;;9.00;99.90;;;;;;5070961;28;20281;-59
2023/04/16 01:10:32;;;;;;;7.43;4.27;;;9.00;99.90;;;;;;5040081;28;20297;-59
2023/04/16 01:12:59;;;;;;;5.37;3.43;;;9.10;99.90;;;;;;5057532;28;20894;-59
2023/04/16 01:15:26;;;;;;;7.80;3.70;;;9.10;99.90;;;;;;5051623;28;20282;-59
2023/04/16 01:17:52;;;;;;;5.80;3.60;;;9.10;99.90;;;;;;5056222;28;20735;-60
2023/04/16 01:20:19;;;;;;;8.30;3.63;;;9.20;99.90;;;;;;5069498;28;20203;-59
2023/04/16 01:22:46;;;;;;;3.17;2.77;;;9.20;99.90;;;;;;5068053;28;20212;-59
2023/04/16 01:25:14;;;;;;;3.27;2.70;;;9.10;99.90;;;;;;5070063;28;20596;-60
2023/04/16 01:27:41;;;;;;;4.43;3.10;;;9.10;99.90;;;;;;5053134;28;20252;-60
2023/04/16 01:30:08;;;;;;;7.43;3.10;;;9.10;99.90;;;;;;5066504;28;20203;-60
2023/04/16 01:32:35;;;;;;;10.13;3.57;;;9.10;99.90;;;;;;5070843;28;20278;-61
2023/04/16 01:35:02;;;;;;;5.93;3.33;;;9.10;99.90;;;;;;5063442;28;20205;-61
2023/04/16 01:37:30;;;;;;;6.10;3.10;;;9.20;99.90;;;;;;5054576;28;20262;-59
2023/04/16 01:39:57;;;;;;;5.40;3.10;;;9.30;99.90;;;;;;5066345;28;20207;-59
2023/04/16 01:42:23;;;;;;;7.37;3.00;;;9.10;99.90;;;;;;5071836;28;20273;-60
2023/04/16 01:44:50;;;;;;;6.10;2.87;;;9.10;99.90;;;;;;5070811;28;20221;-59
2023/04/16 01:47:17;;;;;;;7.63;2.93;;;9.10;99.90;;;;;;5058325;28;20292;-59
2023/04/16 01:49:47;;;;;;;8.40;2.43;;;9.10;99.90;;;;;;5058064;28;20290;-59
2023/04/16 01:52:13;;;;;;;3.93;2.43;;;9.10;99.90;;;;;;5075299;28;20239;-59
2023/04/16 01:54:40;;;;;;;4.07;2.77;;;9.10;99.90;;;;;;5074050;28;20284;-61
2023/04/16 01:57:08;;;;;;;4.40;2.80;;;9.00;99.90;;;;;;5076195;28;20651;-59
2023/04/16 01:59:34;;;;;;;7.93;2.67;;;9.10;99.90;;;;;;5066204;28;20256;-59
2023/04/16 02:02:10;;;;;;;4.50;2.40;;;9.10;99.90;;;;;;5073070;28;20560;-60
2023/04/16 02:04:38;;;;;;;5.43;2.50;;;9.10;99.90;;;;;;5074562;28;20198;-60
2023/04/16 02:07:05;;;;;;;4.60;2.60;;;9.20;99.90;;;;;;5076385;28;20218;-60
2023/04/16 02:09:36;;;;;;;5.57;2.60;;;9.20;99.90;;;;;;5075690;28;20195;-60
2023/04/16 02:12:03;;;;;;;3.50;2.60;;;9.20;99.90;;;;;;5076404;28;20599;-60
2023/04/16 02:14:31;;;;;;;6.93;2.30;;;9.10;99.90;;;;;;5055893;28;20196;-60
2023/04/16 02:16:59;;;;;;;7.87;2.70;;;9.10;99.90;;;;;;5075186;28;20680;-60
2023/04/16 02:19:26;;;;;;;6.93;3.00;;;9.10;99.90;;;;;;5055726;28;20230;-65
2023/04/16 02:21:53;;;;;;;6.30;2.93;;;9.00;99.90;;;;;;5076477;28;20254;-60
2023/04/16 02:24:20;;;;;;;5.03;2.83;;;9.10;99.90;;;;;;5057302;28;20200;-60
2023/04/16 02:26:47;;;;;;;5.53;2.47;;;9.10;99.90;;;;;;5077278;28;20258;-60
2023/04/16 02:29:15;;;;;;;6.80;3.20;;;9.10;99.90;;;;;;5075641;28;20195;-60
2023/04/16 02:31:43;;;;;;;7.20;2.87;;;9.00;99.90;;;;;;5074638;28;20206;-60
2023/04/16 02:34:10;;;;;;;5.60;2.70;;;9.00;99.90;;;;;;5074187;28;20282;-60
2023/04/16 02:36:37;;;;;;;9.10;3.47;;;9.00;99.90;;;;;;5057190;28;20203;-60
2023/04/16 02:39:04;;;;;;;6.27;3.57;;;8.90;99.90;;;;;;5072528;28;20355;-60
2023/04/16 02:41:31;;;;;;;6.33;3.73;;;8.90;99.90;;;;;;5059578;28;20328;-60
2023/04/16 02:43:58;;;;;;;10.10;4.20;;;8.90;99.90;;;;;;5056449;28;20773;-60
2023/04/16 02:46:25;;;;;;;7.07;3.90;;;8.90;99.90;;;;;;5072519;28;20202;-60
2023/04/16 02:48:52;;;;;;;6.17;4.03;;;9.00;99.90;;;;;;5056611;28;20229;-60
2023/04/16 02:51:20;;;;;;;8.37;4.50;;;9.00;99.90;;;;;;5057320;28;20213;-60
2023/04/16 02:53:47;;;;;;;7.37;4.37;;;9.10;99.90;;;;;;5054774;28;20286;-60
2023/04/16 02:56:13;;;;;;;9.40;4.27;;;9.10;99.90;;;;;;5065758;28;20210;-60
2023/04/16 02:58:40;;;;;;;9.87;4.87;;;9.10;99.90;;;;;;5076346;28;20199;-60
2023/04/16 03:01:07;;;;;;;8.90;4.17;;;9.10;99.90;;;;;;5074198;28;20614;-60
2023/04/16 03:03:35;;;;;;;9.23;5.23;;;9.20;99.90;;;;;;5072939;28;20675;-60
2023/04/16 03:06:01;;;;;;;6.63;4.47;;;9.10;99.90;;;;;;5057303;28;20233;-60
2023/04/16 03:08:28;;;;;;;9.33;4.97;;;9.20;99.90;;;;;;5077343;28;20207;-61
2023/04/16 03:10:55;;;;;;;7.07;4.43;;;9.10;99.90;;;;;;5079487;28;20249;-60
2023/04/16 03:13:22;;;;;;;7.80;4.83;;;9.20;99.90;;;;;;5077512;28;20234;-60
2023/04/16 03:15:49;;;;;;;8.60;5.47;;;9.20;99.90;;;;;;5078789;28;20246;-64
2023/04/16 03:18:16;;;;;;;7.07;5.67;;;9.30;99.90;;;;;;5079320;28;20235;-60
2023/04/16 03:20:43;;;;;;;11.60;5.70;;;9.20;99.90;;;;;;5077699;28;20270;-60
2023/04/16 03:23:10;;;;;;;10.17;5.30;;;9.20;99.90;;;;;;5078264;28;20215;-60
2023/04/16 03:25:39;;;;;;;11.07;6.20;;;9.20;99.90;;;;;;5059652;28;20209;-60
2023/04/16 03:28:06;;;;;;;10.63;5.47;;;9.20;99.90;;;;;;5079016;28;20188;-60
2023/04/16 03:30:33;;;;;;;7.63;5.53;;;9.20;99.90;;;;;;5056552;28;20252;-60
2023/04/16 03:33:00;;;;;;;11.40;5.50;;;9.30;99.90;;;;;;5060886;28;20203;-60
2023/04/16 03:35:27;;;;;;;9.27;6.13;;;9.20;99.90;;;;;;5073110;28;20198;-60
2023/04/16 03:37:53;;;;;;;9.80;6.10;;;9.30;99.90;;;;;;5076663;28;20639;-60
2023/04/16 03:40:20;;;;;;;8.57;5.73;;;9.20;99.90;;;;;;5055218;28;20285;-60
2023/04/16 03:42:47;;;;;;;11.47;5.60;;;9.30;99.90;;;;;;5074711;28;20756;-60
2023/04/16 03:45:14;;;;;;;14.27;6.57;;;9.20;99.90;;;;;;5076406;28;20647;-60
2023/04/16 03:47:41;;;;;;;10.13;6.03;;;9.20;99.90;;;;;;5045197;28;20850;-60
2023/04/16 03:50:10;;;;;;;9.70;5.67;;;9.10;99.90;;;;;;5057467;28;20928;-60
2023/04/16 03:52:37;;;;;;;10.00;5.63;;;9.20;99.90;;;;;;5078266;28;20295;-60
2023/04/16 03:55:04;;;;;;;8.20;5.80;;;9.20;99.90;;;;;;4699872;28;10000400;-60
2023/04/16 03:57:31;;;;;;;7.17;4.77;;;9.10;99.90;;;;;;5066216;28;20202;-61
2023/04/16 03:59:58;;;;;;;12.13;5.23;;;9.20;99.90;;;;;;5062973;28;20601;-62
2023/04/16 04:02:25;;;;;;;10.57;5.43;;;9.20;99.90;;;;;;5076367;28;20567;-62
2023/04/16 04:04:53;;;;;;;10.30;5.23;;;9.10;99.90;;;;;;5079441;28;20565;-62
2023/04/16 04:07:20;;;;;;;8.50;5.47;;;9.00;99.90;;;;;;5080924;28;20225;-62
2023/04/16 04:09:47;;;;;;;8.07;5.07;;;9.20;99.90;;;;;;5075178;28;20293;-62
2023/04/16 04:12:14;;;;;;;9.90;5.50;;;9.30;99.90;;;;;;5076827;28;20654;-61
2023/04/16 04:14:41;;;;;;;13.80;5.97;;;9.20;99.90;;;;;;5077947;28;20195;-61
2023/04/16 04:17:08;;;;;;;10.97;5.10;;;9.20;99.90;;;;;;5078453;28;20213;-61
2023/04/16 04:19:35;;;;;;;10.03;5.00;;;9.20;99.90;;;;;;5079089;28;20234;-61
2023/04/16 04:22:04;;;;;;;12.30;5.13;;;9.20;99.90;;;;;;5058736;28;20209;-61
2023/04/16 04:24:31;;;;;;;8.33;5.30;;;9.10;99.90;;;;;;5059486;28;20226;-62
2023/04/16 04:26:58;;;;;;;10.40;4.70;;;9.20;99.90;;;;;;5061603;28;20331;-62
2023/04/16 04:29:25;;;;;;;9.30;4.70;;;9.10;99.90;;;;;;5077196;28;20334;-61
2023/04/16 04:31:52;;;;;;;7.97;5.30;;;9.00;99.90;;;;;;5047777;28;20238;-63
2023/04/16 04:34:19;;;;;;;8.93;5.80;;;8.90;99.90;;;;;;5059271;28;20210;-62
2023/04/16 04:36:46;;;;;;;8.93;5.03;;;8.90;99.90;;;;;;5059616;28;20232;-62
2023/04/16 04:39:13;;;;;;;11.83;5.00;;;9.00;99.90;;;;;;5078766;28;20313;-62
2023/04/16 04:41:39;;;;;;;9.27;5.13;;;8.90;99.90;;;;;;5075947;28;20202;-62
2023/04/16 04:44:06;;;;;;;9.53;5.37;;;8.90;99.90;;;;;;5076350;28;22481;-61
2023/04/16 04:46:33;;;;;;;10.57;5.47;;;8.90;99.90;;;;;;5055373;28;20283;-62
2023/04/16 04:49:00;;;;;;;8.43;5.67;;;9.00;99.90;;;;;;5076206;28;20223;-62
2023/04/16 04:51:27;;;;;;;10.87;5.50;;;9.10;99.90;;;;;;5044031;28;20278;-62
2023/04/16 04:53:54;;;;;;;9.73;5.77;;;9.10;99.90;;;;;;5061011;28;20230;-62
2023/04/16 04:56:21;;;;;;;11.33;5.77;;;9.10;99.90;;;;;;5058820;28;20251;-62
2023/04/16 04:58:49;;;;;;;10.63;5.97;;;9.10;99.90;;;;;;5076562;28;20202;-62
2023/04/16 05:01:16;;;;;;;10.53;5.90;;;9.10;99.90;;;;;;5075088;28;20199;-64
2023/04/16 05:03:43;;;;;;;10.73;5.93;;;9.10;99.90;;;;;;5059084;28;20215;-61
2023/04/16 05:06:11;;;;;;;9.60;5.93;;;9.10;99.90;;;;;;5076416;28;20796;-61
2023/04/16 05:08:37;;;;;;;10.27;5.37;;;9.10;99.90;;;;;;5078340;28;20274;-62
2023/04/16 05:11:05;;;;;;;8.53;6.03;;;9.10;99.90;;;;;;5075650;28;20227;-62
2023/04/16 05:13:32;;;;;;;11.57;6.37;;;9.10;99.90;;;;;;5076508;28;20259;-62
2023/04/16 05:15:59;;;;;;;13.30;5.70;;;9.00;99.90;;;;;;5076470;28;20623;-61
2023/04/16 05:18:26;;;;;;;12.03;5.93;;;9.20;99.90;;;;;;5060384;28;20273;-62
2023/04/16 05:20:53;;;;;;;9.40;6.13;;;9.10;99.90;;;;;;5074536;28;20191;-61
2023/04/16 05:23:20;;;;;;;9.63;5.90;;;9.10;99.90;;;;;;5076655;28;20647;-62
2023/04/16 05:25:47;;;;;;;7.50;5.63;;;9.10;99.90;;;;;;5073777;28;20219;-61
2023/04/16 05:28:13;;;;;;;13.30;6.27;;;9.10;99.90;;;;;;5044299;28;20651;-62
2023/04/16 05:30:40;;;;;;;10.77;6.30;;;9.10;99.90;;;;;;5025451;28;20238;-62
2023/04/16 05:33:07;;;;;;;10.73;6.77;;;9.00;99.90;;;;;;5077837;28;20731;-61
2023/04/16 05:35:34;;;;;;;10.60;5.90;;;9.00;99.90;;;;;;5076653;28;20634;-62
2023/04/16 05:38:03;;;;;;;9.93;6.83;;;9.10;99.90;;;;;;5077584;28;20201;-62
2023/04/16 05:40:30;;;;;;;10.40;7.13;;;9.10;99.90;;;;;;5056951;28;20203;-62
2023/04/16 05:42:57;;;;;;;12.20;6.77;;;9.10;99.90;;;;;;5075924;28;20300;-62
2023/04/16 05:45:24;;;;;;;12.30;7.00;;;9.20;99.90;;;;;;5074713;28;20776;-62
2023/04/16 05:47:53;;;;;;;10.13;6.70;;;9.10;99.90;;;;;;5066629;28;20204;-62
2023/04/16 05:50:20;;;;;;;12.87;7.57;;;9.10;99.90;;;;;;5060156;28;20292;-62
2023/04/16 05:52:47;;;;;;;10.33;6.53;;;9.10;99.90;;;;;;5057134;28;21215;-62
2023/04/16 05:55:14;;;;;;;12.60;7.37;;;9.20;99.90;;;;;;5073559;28;20207;-61
2023/04/16 05:57:41;;;;;;;12.73;6.80;;;9.20;99.90;;;;;;5041592;28;20211;-62
2023/04/16 06:00:08;;;;;;;13.13;7.53;;;9.20;99.90;;;;;;5073198;28;20203;-61
2023/04/16 06:02:35;;;;;;;12.53;7.07;;;9.20;99.90;;;;;;5037235;28;20251;-62
2023/04/16 06:05:02;;;;;;;10.30;6.53;;;9.20;99.90;;;;;;5072186;28;20367;-61
2023/04/16 06:07:29;;;;;;;18.27;7.83;;;9.10;99.90;;;;;;5062356;28;20196;-62
2023/04/16 06:09:56;;;;;;;10.77;6.90;;;9.20;99.90;;;;;;5057845;28;20543;-62
2023/04/16 06:12:23;;;;;;;13.33;7.53;;;9.20;99.90;;;;;;5057760;28;20206;-62
2023/04/16 06:14:50;;;;;;;16.70;7.90;;;9.10;99.90;;;;;;5056202;28;20704;-61
2023/04/16 06:17:18;;;;;;;14.30;7.23;;;9.20;99.90;;;;;;5042941;28;20207;-62
2023/04/16 06:19:45;;;;;;;12.60;7.27;;;9.20;99.90;;;;;;5065718;28;20271;-62
2023/04/16 06:22:12;;;;;;;17.07;7.83;;;9.10;99.90;;;;;;5074067;28;20828;-62
2023/04/16 06:24:39;;;;;;;17.50;8.27;;;9.20;99.90;;;;;;5074615;28;20298;-62
2023/04/16 06:27:06;;;;;;;14.60;8.70;;;9.10;99.90;;;;;;5073343;28;20227;-62
2023/04/16 06:29:32;;;;;;;22.17;9.37;;;9.10;99.90;;;;;;5040844;28;20210;-62
2023/04/16 06:32:07;;;;;;;16.03;8.87;;;9.10;99.90;;;;;;5071153;28;20199;-62
2023/04/16 06:34:35;;;;;;;16.73;8.63;;;9.10;99.90;;;;;;5072615;28;20214;-61
2023/04/16 06:37:01;;;;;;;17.73;9.37;;;9.10;99.90;;;;;;5071334;28;20206;-62
2023/04/16 06:39:29;;;;;;;17.90;9.43;;;9.10;99.90;;;;;;5071126;28;20210;-62
2023/04/16 06:41:56;;;;;;;19.73;9.40;;;9.10;99.90;;;;;;5074503;28;20301;-61
2023/04/16 06:44:23;;;;;;;12.33;7.97;;;9.10;99.90;;;;;;5074147;28;20232;-62
2023/04/16 06:46:50;;;;;;;17.57;9.13;;;9.10;99.90;;;;;;5076104;28;20286;-62
2023/04/16 06:49:17;;;;;;;24.90;9.40;;;9.00;99.90;;;;;;5059597;28;20298;-62
2023/04/16 06:51:44;;;;;;;22.87;10.33;;;9.00;99.90;;;;;;5042075;28;20313;-62
2023/04/16 06:54:11;;;;;;;21.37;10.33;;;9.00;99.90;;;;;;5040422;28;20700;-68
2023/04/16 06:56:37;;;;;;;21.27;10.43;;;9.10;99.90;;;;;;5057746;28;20688;-62
2023/04/16 06:59:05;;;;;;;16.73;10.03;;;9.20;99.90;;;;;;5057494;28;20272;-61
2023/04/16 07:01:31;;;;;;;28.50;9.83;;;9.20;99.90;;;;;;5073095;28;20294;-62
2023/04/16 07:03:59;;;;;;;18.27;9.83;;;9.20;99.90;;;;;;5073995;28;20632;-61
2023/04/16 07:06:26;;;;;;;21.53;10.70;;;9.20;99.90;;;;;;5075926;28;20199;-62
2023/04/16 07:08:53;;;;;;;18.63;10.30;;;9.20;99.90;;;;;;5076223;28;20202;-61
2023/04/16 07:11:21;;;;;;;19.57;10.07;;;9.30;99.90;;;;;;5075130;28;20215;-62
2023/04/16 07:13:49;;;;;;;24.30;10.33;;;9.20;99.90;;;;;;5071651;28;20202;-61
2023/04/16 07:16:17;;;;;;;20.87;10.73;;;9.30;99.90;;;;;;5075260;28;20227;-64
2023/04/16 07:18:44;;;;;;;20.77;10.13;;;9.20;99.90;;;;;;5068801;28;20738;-61
2023/04/16 07:21:10;;;;;;;21.87;10.63;;;9.30;99.90;;;;;;5074329;28;20203;-61
2023/04/16 07:23:37;;;;;;;18.80;9.73;;;9.20;99.90;;;;;;5070945;28;20254;-61
2023/04/16 07:26:04;;;;;;;25.33;12.17;;;9.20;99.90;;;;;;5057980;28;22306;-61
2023/04/16 07:28:31;;;;;;;18.93;10.17;;;9.20;99.90;;;;;;5073222;28;20214;-61
2023/04/16 07:30:59;;;;;;;19.63;11.50;;;9.30;99.90;;;;;;5069710;28;20265;-61
2023/04/16 07:33:26;;;;;;;24.03;11.03;;;9.30;99.90;;;;;;5037400;28;20217;-61
2023/04/16 07:35:53;;;;;;;22.23;10.27;;;9.40;99.90;;;;;;5053122;28;20242;-61
2023/04/16 07:38:20;;;;;;;27.10;11.37;;;9.30;99.90;;;;;;5053148;28;20572;-62
2023/04/16 07:40:47;;;;;;;21.20;11.37;;;9.20;99.90;;;;;;5067577;28;20217;-61
2023/04/16 07:43:15;;;;;;;21.10;10.40;;;9.30;99.90;;;;;;5054929;28;20242;-62
2023/04/16 07:45:42;;;;;;;20.90;11.07;;;9.30;99.90;;;;;;5056478;28;20192;-64
2023/04/16 07:48:09;;;;;;;20.67;10.83;;;9.20;99.90;;;;;;5074139;28;20565;-62
2023/04/16 07:50:36;;;;;;;21.93;9.77;;;9.40;99.90;;;;;;5057588;28;20195;-63
2023/04/16 07:53:04;;;;;;;21.03;11.00;;;9.40;99.90;;;;;;5073285;28;20197;-61
2023/04/16 07:55:31;;;;;;;21.97;10.77;;;9.40;99.90;;;;;;5073039;28;20198;-62
2023/04/16 07:57:58;;;;;;;21.43;10.07;;;9.50;99.90;;;;;;5058161;28;20619;-62
2023/04/16 08:00:25;;;;;;;21.97;10.57;;;9.50;99.90;;;;;;5056408;28;20724;-62
2023/04/16 08:02:52;;;;;;;18.50;10.07;;;9.50;99.90;;;;;;5060129;28;20217;-63
2023/04/16 08:05:19;;;;;;;23.80;10.33;;;9.50;99.90;;;;;;5056219;28;20310;-62
2023/04/16 08:07:46;;;;;;;21.83;10.57;;;9.40;99.90;;;;;;5073353;28;20207;-62
2023/04/16 08:10:13;;;;;;;22.60;10.97;;;9.50;99.90;;;;;;5069878;28;22357;-61
2023/04/16 08:12:40;;;;;;;19.23;9.50;;;9.60;99.90;;;;;;5061903;28;20199;-61
2023/04/16 08:15:07;;;;;;;16.33;10.03;;;9.60;99.90;;;;;;5067411;28;20648;-61
2023/04/16 08:17:36;;;;;;;23.10;10.27;;;9.50;99.90;;;;;;5060657;28;20219;-62
2023/04/16 08:20:04;;;;;;;20.53;9.30;;;9.40;99.90;;;;;;5052858;28;20206;-62
2023/04/16 08:22:32;;;;;;;19.93;10.20;;;9.50;99.90;;;;;;5040122;28;20406;-61
2023/04/16 08:24:59;;;;;;;18.07;9.67;;;9.50;99.90;;;;;;5058685;28;20212;-61
2023/04/16 08:27:26;;;;;;;20.47;9.70;;;9.50;99.90;;;;;;5023672;28;20259;-61
2023/04/16 08:29:53;;;;;;;20.30;10.30;;;9.60;99.90;;;;;;5057386;28;20325;-61
2023/04/16 08:32:19;;;;;;;20.63;11.03;;;9.60;99.90;;;;;;5057336;28;20244;-62
2023/04/16 08:34:46;;;;;;;15.63;9.53;;;9.70;99.90;;;;;;5066642;28;20222;-61
2023/04/16 08:37:13;;;;;;;15.57;9.50;;;9.60;99.90;;;;;;5074413;28;20199;-62
2023/04/16 08:39:40;;;;;;;16.07;9.17;;;9.50;99.90;;;;;;5073174;28;20283;-62
2023/04/16 08:42:23;;;;;;;22.23;9.67;;;9.60;99.90;;;;;;5073865;28;20207;-61
2023/04/16 08:44:58;;;;;;;17.70;9.00;;;9.70;99.90;;;;;;5070305;28;20215;-62
2023/04/16 08:47:27;;;;;;;21.77;9.93;;;9.70;99.90;;;;;;5072136;28;20550;-61
2023/04/16 08:49:56;;;;;;;15.40;9.80;;;9.70;99.90;;;;;;5055318;28;20207;-62
2023/04/16 08:52:29;;;;;;;19.80;10.67;;;9.70;99.90;;;;;;5056139;28;20265;-62
2023/04/16 08:55:06;;;;;;;26.00;10.97;;;9.70;99.90;;;;;;5071236;28;20214;-62
2023/04/16 08:57:40;;;;;;;20.83;10.83;;;9.70;99.90;;;;;;5056751;28;20200;-62
2023/04/16 09:00:08;;;;;;;19.10;10.37;;;9.80;99.90;;;;;;5067145;28;20231;-62
2023/04/16 09:02:36;;;;;;;21.83;11.00;;;9.70;99.90;;;;;;5057000;28;20293;-62
2023/04/16 09:05:06;;;;;;;19.70;10.60;;;9.70;99.90;;;;;;5051078;28;20241;-62
2023/04/16 09:07:34;;;;;;;18.07;10.07;;;9.70;99.90;;;;;;5056557;28;20766;-64
2023/04/16 09:10:02;;;;;;;18.33;9.80;;;9.80;99.90;;;;;;5072714;28;20894;-63
2023/04/16 09:12:30;;;;;;;19.57;10.43;;;9.90;99.90;;;;;;5054571;28;20283;-61
2023/04/16 09:14:59;;;;;;;20.20;9.77;;;10.00;99.90;;;;;;5072964;28;20200;-61
2023/04/16 09:17:27;;;;;;;18.37;9.33;;;10.00;99.90;;;;;;5072754;28;20195;-62
2023/04/16 09:19:54;;;;;;;18.23;9.20;;;9.90;99.90;;;;;;5055298;28;20211;-61
2023/04/16 09:22:21;;;;;;;15.50;8.63;;;9.90;99.90;;;;;;5073796;28;20228;-62
2023/04/16 09:24:48;;;;;;;20.17;10.20;;;9.90;99.90;;;;;;5073653;28;20228;-62
2023/04/16 09:27:15;;;;;;;14.67;10.23;;;9.90;99.90;;;;;;5073550;28;20808;-61
2023/04/16 09:29:42;;;;;;;17.60;8.83;;;9.90;99.90;;;;;;5069824;28;20253;-62
2023/04/16 09:32:10;;;;;;;16.77;9.70;;;10.00;99.90;;;;;;5073849;28;22040;-65
2023/04/16 09:34:57;;;;;;;17.50;9.43;;;10.00;99.90;;;;;;5069282;28;20214;-62
2023/04/16 09:37:26;;;;;;;14.90;9.57;;;10.00;99.90;;;;;;5071011;28;20810;-62
2023/04/16 09:39:58;;;;;;;18.17;9.90;;;10.00;99.90;;;;;;5050689;28;20282;-61
2023/04/16 09:42:27;;;;;;;17.00;9.90;;;10.10;99.90;;;;;;5073809;28;20322;-63
2023/04/16 09:44:55;;;;;;;18.63;9.53;;;10.00;99.90;;;;;;5071299;28;20317;-61
2023/04/16 09:47:41;;;;;;;18.33;9.73;;;10.10;99.90;;;;;;5057952;28;20288;-62
2023/04/16 09:50:12;;;;;;;21.40;11.63;;;10.20;99.90;;;;;;5058366;28;20271;-62
2023/04/16 09:52:46;;;;;;;13.57;9.03;;;10.10;99.90;;;;;;5075741;28;20216;-62
2023/04/16 09:55:14;;;;;;;15.67;9.60;;;10.20;99.90;;;;;;5065485;28;20250;-62
2023/04/16 09:57:41;;;;;;;16.23;9.73;;;10.30;99.90;;;;;;5068567;28;20203;-61
2023/04/16 10:00:11;;;;;;;17.97;9.57;;;10.20;99.90;;;;;;5074092;28;20693;-61
2023/04/16 10:02:40;;;;;;;16.00;9.77;;;10.20;99.90;;;;;;5034754;28;20493;-62
2023/04/16 10:05:08;;;;;;;15.47;9.00;;;10.20;99.90;;;;;;5067029;28;20213;-62
2023/04/16 10:07:36;;;;;;;13.90;9.27;;;10.20;99.90;;;;;;5056608;28;20191;-62
2023/04/16 10:10:04;;;;;;;14.97;9.60;;;10.20;99.90;;;;;;5051022;28;20317;-62
2023/04/16 10:12:34;;;;;;;19.17;8.97;;;10.20;99.90;;;;;;5067859;28;20200;-62
2023/04/16 10:15:01;;;;;;;16.40;9.17;;;10.20;99.90;;;;;;5050003;28;20257;-62
2023/04/16 10:17:29;;;;;;;14.13;8.77;;;10.20;99.90;;;;;;5055468;28;20215;-62
2023/04/16 10:19:57;;;;;;;15.20;9.23;;;10.20;99.90;;;;;;5073781;28;20210;-62
2023/04/16 10:22:25;;;;;;;12.70;8.73;;;10.30;99.90;;;;;;5075207;28;20619;-62
2023/04/16 10:24:53;;;;;;;12.60;8.43;;;10.40;99.90;;;;;;5073895;28;20204;-63
2023/04/16 10:27:20;;;;;;;15.47;9.10;;;10.40;99.90;;;;;;5057560;28;20258;-62
2023/04/16 10:29:48;;;;;;;17.93;9.73;;;10.40;99.90;;;;;;5073279;28;20892;-65
2023/04/16 10:32:17;;;;;;;14.63;9.87;;;10.50;99.90;;;;;;5062750;28;20598;-62
2023/04/16 10:34:45;;;;;;;16.87;9.40;;;10.50;99.90;;;;;;5079496;28;20207;-62
2023/04/16 10:37:11;;;;;;;14.33;8.50;;;10.50;99.90;;;;;;5075957;28;20323;-62
2023/04/16 10:39:38;;;;;;;12.20;8.27;;;10.60;99.90;;;;;;5059094;28;20597;-62
2023/04/16 10:42:07;;;;;;;16.83;8.57;;;10.50;99.90;;;;;;5074010;28;20302;-63
2023/04/16 10:44:35;;;;;;;16.73;9.47;;;10.30;99.90;;;;;;5075431;28;20790;-62
2023/04/16 10:47:09;;;;;;;15.80;9.63;;;10.40;99.90;;;;;;5075658;28;20220;-62
2023/04/16 10:49:35;;;;;;;13.87;8.77;;;10.40;99.90;;;;;;5073887;28;20643;-62
2023/04/16 10:52:15;;;;;;;14.47;9.27;;;10.50;99.90;;;;;;5038409;28;20204;-62
2023/04/16 10:54:42;;;;;;;15.60;9.00;;;10.50;99.90;;;;;;5053284;28;20303;-62
2023/04/16 10:57:15;;;;;;;15.30;9.67;;;10.50;99.90;;;;;;5053771;28;20207;-62
2023/04/16 10:59:43;;;;;;;14.70;8.97;;;10.50;99.90;;;;;;5071031;28;20207;-62
2023/04/16 11:02:17;;;;;;;12.73;9.00;;;10.50;99.90;;;;;;5072910;28;20223;-62
2023/04/16 11:04:46;;;;;;;15.60;8.90;;;10.60;99.90;;;;;;5050439;28;20218;-62
2023/04/16 11:07:16;;;;;;;15.83;9.00;;;10.60;99.90;;;;;;5076462;28;20198;-62
2023/04/16 11:09:46;;;;;;;11.40;7.93;;;10.70;99.90;;;;;;5059767;28;20204;-62
2023/04/16 11:12:17;;;;;;;12.73;8.50;;;10.70;99.90;;;;;;5070588;28;20206;-62
2023/04/16 11:14:49;;;;;;;14.07;8.37;;;10.80;99.90;;;;;;5073286;28;20204;-62
2023/04/16 11:17:17;;;;;;;10.50;7.53;;;10.90;99.90;;;;;;5070625;28;20235;-62
2023/04/16 11:19:44;;;;;;;13.83;8.30;;;10.80;99.90;;;;;;5073318;28;20654;-62
2023/04/16 11:22:13;;;;;;;13.47;8.80;;;10.80;99.90;;;;;;5073923;28;20214;-62
2023/04/16 11:24:41;;;;;;;12.80;8.30;;;10.70;99.90;;;;;;5070972;28;20231;-62
2023/04/16 11:27:07;;;;;;;11.87;7.77;;;10.70;99.90;;;;;;5050381;28;21035;-62
2023/04/16 11:29:34;;;;;;;16.60;8.70;;;10.70;99.90;;;;;;5049218;28;20295;-62
2023/04/16 11:32:02;;;;;;;11.97;8.27;;;10.80;99.90;;;;;;5069992;28;20293;-61
2023/04/16 11:34:28;;;;;;;10.60;7.10;;;10.80;99.90;;;;;;5070058;28;20268;-62
2023/04/16 11:36:55;;;;;;;13.07;8.07;;;10.70;99.90;;;;;;5056597;28;20235;-62
2023/04/16 11:39:22;;;;;;;11.10;7.63;;;10.80;99.90;;;;;;5075082;28;20237;-62
2023/04/16 11:41:51;;;;;;;10.60;7.27;;;10.80;99.90;;;;;;5072671;28;20337;-62
2023/04/16 11:44:22;;;;;;;15.63;8.37;;;10.80;99.90;;;;;;5048533;28;22231;-62
2023/04/16 11:46:50;;;;;;;11.07;7.33;;;10.60;99.90;;;;;;5069539;28;20195;-62
2023/04/16 11:49:29;;;;;;;14.10;8.43;;;10.70;99.90;;;;;;5055767;28;20567;-61
2023/04/16 11:51:56;;;;;;;10.93;7.23;;;10.80;99.90;;;;;;5072794;28;20556;-62
2023/04/16 11:54:24;;;;;;;15.10;7.77;;;10.70;99.90;;;;;;5051957;28;20636;-62
2023/04/16 11:56:52;;;;;;;11.73;8.07;;;10.80;99.90;;;;;;5066894;28;20643;-62
2023/04/16 11:59:21;;;;;;;11.13;8.00;;;10.80;99.90;;;;;;5070481;28;20664;-64
2023/04/16 12:01:49;;;;;;;14.87;7.43;;;10.90;99.90;;;;;;5076251;28;20745;-61
2023/04/16 12:04:19;;;;;;;9.33;6.90;;;10.90;99.90;;;;;;5066301;28;20621;-61
2023/04/16 12:07:05;;;;;;;13.83;7.70;;;10.80;99.90;;;;;;5057046;28;20197;-61
2023/04/16 12:09:34;;;;;;;9.77;6.53;;;10.70;99.90;;;;;;5055679;28;20894;-61
2023/04/16 12:12:05;;;;;;;14.37;7.50;;;10.70;99.90;;;;;;5071702;28;20207;-61
2023/04/16 12:14:32;;;;;;;9.83;6.77;;;10.60;99.90;;;;;;5070610;28;20663;-59
2023/04/16 12:17:18;;;;;;;9.77;7.00;;;10.70;99.90;;;;;;5073930;28;20221;-59
2023/04/16 12:19:55;;;;;;;10.10;6.33;;;10.80;99.90;;;;;;5067479;28;20232;-59
2023/04/16 12:22:30;;;;;;;8.37;6.07;;;10.80;99.90;;;;;;5061215;28;20706;-64
2023/04/16 12:24:59;;;;;;;8.97;6.37;;;10.90;99.90;;;;;;5049625;28;20214;-61
2023/04/16 12:27:50;;;;;;;10.67;6.67;;;11.00;99.90;;;;;;5057609;28;20204;-61
2023/04/16 12:30:21;;;;;;;8.23;6.00;;;11.10;99.90;;;;;;5068158;28;20205;-59
2023/04/16 12:33:12;;;;;;;9.03;6.10;;;11.00;99.90;;;;;;5066557;28;20207;-64
2023/04/16 12:35:40;;;;;;;11.80;6.23;;;11.00;99.90;;;;;;5064673;28;20212;-58
2023/04/16 12:38:07;;;;;;;10.30;7.10;;;10.90;99.90;;;;;;5070588;28;20201;-58
2023/04/16 12:40:37;;;;;;;14.37;6.97;;;11.00;99.90;;;;;;5069338;28;20210;-63
2023/04/16 12:43:04;;;;;;;7.37;6.40;;;11.10;99.90;;;;;;5050583;28;21194;-59
2023/04/16 12:45:31;;;;;;;8.50;6.63;;;11.00;99.90;;;;;;5056677;28;20853;-60
2023/04/16 12:47:58;;;;;;;8.57;6.30;;;11.10;99.90;;;;;;5055728;28;20201;-58
2023/04/16 12:50:25;;;;;;;12.43;8.10;;;11.10;99.90;;;;;;5072079;28;20630;-58